createdAt,value
2023-03-07T00:00:45.592Z,41.42
2023-03-07T00:03:14.422Z,32.90
2023-03-07T00:05:41.976Z,35.25
2023-03-07T00:08:09.315Z,36.72
2023-03-07T00:10:36.756Z,29.00
2023-03-07T00:13:04.206Z,35.08
2023-03-07T00:15:31.660Z,31.15
2023-03-07T00:17:59.315Z,35.28
2023-03-07T00:20:26.556Z,32.22
2023-03-07T00:22:53.733Z,37.78
2023-03-07T00:25:20.911Z,32.33
2023-03-07T00:27:48.097Z,31.70
2023-03-07T00:30:15.294Z,34.88
2023-03-07T00:32:42.535Z,29.13
2023-03-07T00:35:09.762Z,31.10
2023-03-07T00:37:36.971Z,27.85
2023-03-07T00:40:06.003Z,36.60
2023-03-07T00:42:33.171Z,30.92
2023-03-07T00:45:00.362Z,32.35
2023-03-07T00:47:27.488Z,28.83
2023-03-07T00:49:54.698Z,27.52
2023-03-07T00:52:21.863Z,30.65
2023-03-07T00:54:49.058Z,31.27
2023-03-07T00:57:16.205Z,26.52
2023-03-07T00:59:43.376Z,30.90
2023-03-07T01:02:10.544Z,34.15
2023-03-07T01:04:37.852Z,28.33
2023-03-07T01:07:05.064Z,31.00
2023-03-07T01:09:33.459Z,28.08
2023-03-07T01:12:00.611Z,31.92
2023-03-07T01:14:27.802Z,33.45
2023-03-07T01:16:55.089Z,33.03
2023-03-07T01:19:22.966Z,33.10
2023-03-07T01:21:50.234Z,35.78
2023-03-07T01:24:18.323Z,36.25
2023-03-07T01:26:45.535Z,31.98
2023-03-07T01:29:12.812Z,34.08
2023-03-07T01:31:40.066Z,31.83
2023-03-07T01:34:07.645Z,33.72
2023-03-07T01:36:35.487Z,29.00
2023-03-07T01:39:06.669Z,33.20
2023-03-07T01:41:38.273Z,30.95
2023-03-07T01:44:08.964Z,29.80
2023-03-07T01:46:48.326Z,34.70
2023-03-07T01:49:15.423Z,32.30
2023-03-07T01:51:43.988Z,34.65
2023-03-07T01:54:12.589Z,33.20
2023-03-07T01:56:40.169Z,31.58
2023-03-07T01:59:07.801Z,33.08
2023-03-07T02:01:35.432Z,33.05
2023-03-07T02:04:12.469Z,26.88
2023-03-07T02:06:40.996Z,33.25
2023-03-07T02:09:12.494Z,36.20
2023-03-07T02:11:41.311Z,33.80
2023-03-07T02:14:08.745Z,35.42
2023-03-07T02:16:37.989Z,31.88
2023-03-07T02:19:10.863Z,33.10
2023-03-07T02:21:38.097Z,38.95
2023-03-07T02:24:44.242Z,36.75
2023-03-07T02:27:11.583Z,36.15
2023-03-07T02:29:39.787Z,37.17
2023-03-07T02:32:07.489Z,40.67
2023-03-07T02:34:34.873Z,37.22
2023-03-07T02:37:05.305Z,32.35
2023-03-07T02:39:32.716Z,34.03
2023-03-07T02:42:01.905Z,31.23
2023-03-07T02:44:29.120Z,33.70
2023-03-07T02:46:56.361Z,37.33
2023-03-07T02:49:23.664Z,43.00
2023-03-07T02:51:50.921Z,31.42
2023-03-07T02:54:18.155Z,26.85
2023-03-07T02:56:45.452Z,38.00
2023-03-07T02:59:12.704Z,35.38
2023-03-07T03:01:39.931Z,36.67
2023-03-07T03:04:07.209Z,32.17
2023-03-07T03:06:34.478Z,33.40
2023-03-07T03:09:02.204Z,31.25
2023-03-07T03:11:29.457Z,35.38
2023-03-07T03:13:56.830Z,30.25
2023-03-07T03:16:24.116Z,29.98
2023-03-07T03:18:51.791Z,35.42
2023-03-07T03:21:19.163Z,31.33
2023-03-07T03:23:46.411Z,28.77
2023-03-07T03:26:13.673Z,29.33
2023-03-07T03:28:41.146Z,31.70
2023-03-07T03:31:09.570Z,28.33
2023-03-07T03:33:37.084Z,31.27
2023-03-07T03:36:08.905Z,28.40
2023-03-07T03:38:36.681Z,32.63
2023-03-07T03:41:05.080Z,33.95
2023-03-07T03:43:32.306Z,35.22
2023-03-07T03:45:59.484Z,35.67
2023-03-07T03:48:27.080Z,37.17
2023-03-07T03:51:01.534Z,43.97
2023-03-07T03:53:29.225Z,46.20
2023-03-07T03:56:01.657Z,42.80
2023-03-07T03:58:28.861Z,40.50
2023-03-07T04:00:56.356Z,31.35
2023-03-07T04:03:23.725Z,33.25
2023-03-07T04:05:51.918Z,33.00
2023-03-07T04:08:19.150Z,28.77
2023-03-07T04:10:46.388Z,26.52
2023-03-07T04:13:13.557Z,22.58
2023-03-07T04:15:40.801Z,27.05
2023-03-07T04:18:08.016Z,27.63
2023-03-07T04:20:35.189Z,22.10
2023-03-07T04:23:02.359Z,27.20
2023-03-07T04:25:29.537Z,27.17
2023-03-07T04:27:56.712Z,28.92
2023-03-07T04:30:23.884Z,30.60
2023-03-07T04:32:51.041Z,31.67
2023-03-07T04:35:18.308Z,35.85
2023-03-07T04:37:45.474Z,35.35
2023-03-07T04:40:12.920Z,40.50
2023-03-07T04:42:40.180Z,27.80
2023-03-07T04:45:07.668Z,13.23
2023-03-07T04:47:34.840Z,12.35
2023-03-07T04:50:02.065Z,20.92
2023-03-07T04:52:29.276Z,16.67
2023-03-07T04:54:56.641Z,17.65
2023-03-07T04:57:23.874Z,17.05
2023-03-07T04:59:51.094Z,16.23
2023-03-07T05:02:18.336Z,16.23
2023-03-07T05:04:45.994Z,17.58
2023-03-07T05:07:13.381Z,17.17
2023-03-07T05:09:40.600Z,23.13
2023-03-07T05:12:08.156Z,13.65
2023-03-07T05:14:35.456Z,15.75
2023-03-07T05:17:02.676Z,15.10
2023-03-07T05:19:32.988Z,15.90
2023-03-07T05:22:03.030Z,20.65
2023-03-07T05:24:30.870Z,17.92
2023-03-07T05:26:58.149Z,20.83
2023-03-07T05:29:25.416Z,20.65
2023-03-07T05:31:52.561Z,22.40
2023-03-07T05:34:19.852Z,25.25
2023-03-07T05:36:48.117Z,21.25
2023-03-07T05:39:16.228Z,22.58
2023-03-07T05:41:43.409Z,22.15
2023-03-07T05:44:16.322Z,24.73
2023-03-07T05:46:43.661Z,19.95
2023-03-07T05:49:10.913Z,20.15
2023-03-07T05:51:38.295Z,17.73
2023-03-07T05:54:05.837Z,27.77
2023-03-07T05:56:37.973Z,25.92
2023-03-07T05:59:09.678Z,23.88
2023-03-07T06:01:37.204Z,24.23
2023-03-07T06:04:04.527Z,21.05
2023-03-07T06:06:31.885Z,14.25
2023-03-07T06:08:59.137Z,17.02
2023-03-07T06:23:32.490Z,12.70
2023-03-07T06:26:00.231Z,14.52
2023-03-07T06:28:27.628Z,15.55
2023-03-07T06:30:54.845Z,14.88
2023-03-07T06:33:22.042Z,14.48
2023-03-07T06:35:49.293Z,17.05
2023-03-07T06:38:17.105Z,10.73
2023-03-07T06:40:44.468Z,13.15
2023-03-07T06:43:15.020Z,9.25
2023-03-07T06:45:42.309Z,9.88
2023-03-07T06:48:16.305Z,10.57
2023-03-07T06:50:46.314Z,11.98
2023-03-07T07:01:57.743Z,11.88
2023-03-07T07:04:25.210Z,8.88
2023-03-07T07:06:52.471Z,13.20
2023-03-07T07:09:19.862Z,11.55
2023-03-07T07:11:53.037Z,11.55
2023-03-07T07:16:47.884Z,12.35
2023-03-07T07:19:17.179Z,12.77
2023-03-07T07:21:44.556Z,14.48
2023-03-07T07:24:14.949Z,14.57
2023-03-07T07:26:44.771Z,15.05
2023-03-07T07:29:12.246Z,15.00
2023-03-07T07:31:39.650Z,16.05
2023-03-07T07:34:06.976Z,19.63
2023-03-07T07:36:38.939Z,14.38
2023-03-07T07:39:07.150Z,16.00
2023-03-07T07:41:35.292Z,13.00
2023-03-07T07:44:05.499Z,13.63
2023-03-07T07:46:33.169Z,12.23
2023-03-07T07:49:00.550Z,11.75
2023-03-07T07:51:27.888Z,9.07
2023-03-07T07:53:55.293Z,11.90
2023-03-07T07:56:24.937Z,11.88
2023-03-07T07:58:52.546Z,16.52
2023-03-07T08:01:23.780Z,9.15
2023-03-07T08:03:51.313Z,17.80
2023-03-07T08:06:20.749Z,11.63
2023-03-07T08:08:48.343Z,8.50
2023-03-07T08:11:16.250Z,12.50
2023-03-07T08:13:43.857Z,8.52
2023-03-07T08:16:15.183Z,11.80
2023-03-07T08:18:53.651Z,14.18
2023-03-07T08:21:21.435Z,14.55
2023-03-07T08:23:48.925Z,9.82
2023-03-07T08:26:17.664Z,10.90
2023-03-07T08:28:45.370Z,16.15
2023-03-07T08:31:16.995Z,9.65
2023-03-07T08:33:44.720Z,10.95
2023-03-07T08:36:14.140Z,11.88
2023-03-07T08:38:41.476Z,13.45
2023-03-07T08:41:09.255Z,9.60
2023-03-07T08:43:37.305Z,10.40
2023-03-07T08:46:06.234Z,13.32
2023-03-07T08:48:33.980Z,11.23
2023-03-07T08:51:18.015Z,13.20
2023-03-07T08:53:46.336Z,11.90
2023-03-07T08:56:15.131Z,12.05
2023-03-07T08:58:43.322Z,12.77
2023-03-07T09:01:11.333Z,14.90
2023-03-07T09:03:42.097Z,8.65
2023-03-07T09:06:09.467Z,9.52
2023-03-07T09:08:36.640Z,14.50
2023-03-07T09:11:05.561Z,12.35
2023-03-07T09:13:35.994Z,13.40
2023-03-07T09:16:08.235Z,13.50
2023-03-07T09:18:36.261Z,17.30
2023-03-07T09:21:04.539Z,19.25
2023-03-07T09:23:31.743Z,13.93
2023-03-07T09:26:04.225Z,13.95
2023-03-07T09:28:31.450Z,13.98
2023-03-07T09:30:58.667Z,17.60
2023-03-07T09:33:25.988Z,15.98
2023-03-07T09:35:53.267Z,17.85
2023-03-07T09:38:20.462Z,13.57
2023-03-07T09:40:48.193Z,21.77
2023-03-07T09:43:18.424Z,19.70
2023-03-07T09:45:54.487Z,23.00
2023-03-07T09:48:29.707Z,25.27
2023-03-07T09:50:59.336Z,21.98
2023-03-07T09:53:40.142Z,21.95
2023-03-07T09:56:09.756Z,24.00
2023-03-07T09:58:38.968Z,18.35
2023-03-07T10:01:08.452Z,17.52
2023-03-07T10:03:45.216Z,18.63
2023-03-07T10:06:19.971Z,19.20
2023-03-07T10:08:47.270Z,21.40
2023-03-07T10:14:42.106Z,23.90
2023-03-07T10:17:20.550Z,20.35
2023-03-07T10:25:34.970Z,17.80
2023-03-07T10:28:26.039Z,19.70
2023-03-07T10:30:55.811Z,18.85
2023-03-07T10:33:23.700Z,19.15
2023-03-07T10:36:20.453Z,18.40
2023-03-07T10:38:56.922Z,16.48
2023-03-07T10:41:24.486Z,11.85
2023-03-07T10:43:56.522Z,15.73
2023-03-07T10:46:33.473Z,17.83
2023-03-07T10:49:20.272Z,16.27
2023-03-07T10:52:13.236Z,18.92
2023-03-07T10:54:40.556Z,20.52
2023-03-07T10:57:12.933Z,15.25
2023-03-07T10:59:43.541Z,20.27
2023-03-07T11:02:29.658Z,18.67
2023-03-07T11:04:57.117Z,19.98
2023-03-07T11:07:36.904Z,21.85
2023-03-07T11:10:24.294Z,20.35
2023-03-07T11:12:51.695Z,24.85
2023-03-07T11:15:21.790Z,21.02
2023-03-07T11:17:49.673Z,24.25
2023-03-07T11:20:30.199Z,20.98
2023-03-07T11:23:23.616Z,15.95
2023-03-07T11:25:52.204Z,22.92
2023-03-07T11:28:26.123Z,21.17
2023-03-07T11:30:54.619Z,31.83
2023-03-07T11:33:34.831Z,27.50
2023-03-07T11:36:18.155Z,20.13
2023-03-07T11:38:45.492Z,40.47
2023-03-07T11:41:20.723Z,25.92
2023-03-07T11:44:06.651Z,21.83
2023-03-07T11:46:39.883Z,27.73
2023-03-07T11:51:39.843Z,32.65
2023-03-07T11:54:07.225Z,27.35
2023-03-07T11:56:37.998Z,28.92
2023-03-07T11:59:14.619Z,29.30
2023-03-07T12:02:01.602Z,27.40
2023-03-07T12:04:53.029Z,30.70
2023-03-07T12:07:59.074Z,23.15
2023-03-07T12:13:54.847Z,23.10
2023-03-07T12:16:41.078Z,17.02
2023-03-07T12:19:08.563Z,18.40
2023-03-07T12:21:46.585Z,16.58
2023-03-07T12:24:24.009Z,22.38
2023-03-07T12:26:58.743Z,21.05
2023-03-07T12:30:01.664Z,18.38
2023-03-07T12:32:40.631Z,15.35
2023-03-07T12:35:40.440Z,10.35
2023-03-07T13:04:04.584Z,5.75
2023-03-07T13:06:34.282Z,7.32
2023-03-07T13:09:04.193Z,10.68
2023-03-07T13:11:33.854Z,5.30
2023-03-07T13:14:02.492Z,7.00
2023-03-07T13:16:35.974Z,10.07
2023-03-07T13:19:21.921Z,9.00
2023-03-07T13:21:49.420Z,6.80
2023-03-07T13:24:35.501Z,8.88
2023-03-07T13:27:24.658Z,9.80
2023-03-07T13:30:10.989Z,14.30
2023-03-07T13:33:07.762Z,10.20
2023-03-07T13:35:38.326Z,9.88
2023-03-07T13:38:15.477Z,9.32
2023-03-07T13:40:53.255Z,9.80
2023-03-07T13:43:20.491Z,8.88
2023-03-07T13:45:53.927Z,6.22
2023-03-07T13:48:21.317Z,7.43
2023-03-07T13:50:54.543Z,9.25
2023-03-07T13:55:54.995Z,8.73
2023-03-07T13:58:33.494Z,7.38
2023-03-07T14:03:48.629Z,6.35
2023-03-07T14:08:47.520Z,10.75
2023-03-07T14:11:19.226Z,7.60
2023-03-07T14:13:46.631Z,4.80
2023-03-07T14:16:34.109Z,7.97
2023-03-07T14:19:01.467Z,7.65
2023-03-07T14:21:44.596Z,8.30
2023-03-07T14:24:23.438Z,6.72
2023-03-07T14:26:52.804Z,6.93
2023-03-07T14:29:22.589Z,11.88
2023-03-07T14:31:53.182Z,8.80
2023-03-07T14:34:34.582Z,8.35
2023-03-07T14:37:04.788Z,9.98
2023-03-07T14:39:54.125Z,9.10
2023-03-07T14:42:25.097Z,2.95
2023-03-07T14:44:52.862Z,2.72
2023-03-07T14:47:32.086Z,1.92
2023-03-07T14:50:11.854Z,2.78
2023-03-07T14:52:39.770Z,3.83
2023-03-07T14:55:07.862Z,4.25
2023-03-07T15:00:35.441Z,3.33
2023-03-07T15:03:04.797Z,3.97
2023-03-07T15:06:02.328Z,5.70
2023-03-07T15:11:51.012Z,6.30
2023-03-07T15:14:23.977Z,10.23
2023-03-07T15:16:56.079Z,14.27
2023-03-07T15:19:23.414Z,10.25
2023-03-07T15:21:53.876Z,8.35
2023-03-07T15:24:26.018Z,9.95
2023-03-07T15:26:55.440Z,9.43
2023-03-07T15:29:24.169Z,9.27
2023-03-07T15:31:51.409Z,6.40
2023-03-07T15:34:30.508Z,7.47
2023-03-07T15:37:17.706Z,7.43
2023-03-07T15:39:54.728Z,11.20
2023-03-07T15:42:22.079Z,8.98
2023-03-07T15:44:59.640Z,7.95
2023-03-07T15:47:27.744Z,9.48
2023-03-07T15:50:02.011Z,8.73
2023-03-07T15:52:32.381Z,10.48
2023-03-07T15:55:00.591Z,7.65
2023-03-07T15:57:31.532Z,8.70
2023-03-07T16:00:00.652Z,12.65
2023-03-07T16:02:34.364Z,9.68
2023-03-07T16:05:28.374Z,5.80
2023-03-07T16:07:57.238Z,8.45
2023-03-07T16:10:29.457Z,10.95
2023-03-07T16:16:07.776Z,12.00
2023-03-07T16:18:36.548Z,10.52
2023-03-07T16:21:07.827Z,13.27
2023-03-07T16:23:40.002Z,7.07
2023-03-07T16:26:15.443Z,8.20
2023-03-07T16:28:44.332Z,7.53
2023-03-07T16:31:25.313Z,17.80
2023-03-07T16:33:56.841Z,17.17
2023-03-07T16:36:25.697Z,6.05
2023-03-07T16:39:00.585Z,10.18
2023-03-07T16:41:56.622Z,6.13
2023-03-07T16:44:43.714Z,7.07
2023-03-07T16:47:49.063Z,5.07
2023-03-07T16:50:42.445Z,4.97
2023-03-07T18:04:16.620Z,30.70
2023-03-07T18:06:54.010Z,32.28
2023-03-07T18:09:28.679Z,18.67
2023-03-07T18:15:47.074Z,29.83
2023-03-07T18:18:22.191Z,22.77
2023-03-07T18:21:01.573Z,18.35
2023-03-07T18:23:36.158Z,19.15
2023-03-07T18:29:14.030Z,16.25
2023-03-07T18:37:15.804Z,27.98
2023-03-07T18:39:47.025Z,21.85
2023-03-07T18:42:19.625Z,19.88
2023-03-07T18:44:52.120Z,36.33
2023-03-07T18:47:25.201Z,34.28
2023-03-07T18:49:55.799Z,19.98
2023-03-07T18:52:23.491Z,16.52
2023-03-07T18:55:01.422Z,18.35
2023-03-07T19:00:20.392Z,25.13
2023-03-07T19:02:47.748Z,22.75
2023-03-07T19:05:15.503Z,18.77
2023-03-07T19:07:53.280Z,20.73
2023-03-07T19:10:29.356Z,21.40
2023-03-07T19:13:39.555Z,22.92
2023-03-07T19:16:17.403Z,23.13
2023-03-07T19:32:29.823Z,24.30
2023-03-07T19:35:19.928Z,45.50
2023-03-07T19:38:03.689Z,36.20
2023-03-07T19:50:19.972Z,17.13
2023-03-07T19:52:50.638Z,20.10
2023-03-07T19:55:25.115Z,27.77
2023-03-07T19:57:56.863Z,23.30
2023-03-07T20:00:38.355Z,38.35
2023-03-07T20:03:08.458Z,30.02
2023-03-07T20:05:42.446Z,19.83
2023-03-07T20:08:13.561Z,19.17
2023-03-07T20:13:43.001Z,23.92
2023-03-07T20:16:26.855Z,25.20
2023-03-07T20:21:56.489Z,34.25
2023-03-07T20:24:26.614Z,24.85
2023-03-07T20:26:56.952Z,21.23
2023-03-07T20:29:29.941Z,21.17
2023-03-07T20:31:57.286Z,23.40
2023-03-07T20:34:32.146Z,25.38
2023-03-07T20:37:06.426Z,36.38
2023-03-07T20:39:33.970Z,25.25
2023-03-07T20:42:07.636Z,33.05
2023-03-07T20:44:44.786Z,32.10
2023-03-07T20:47:18.322Z,17.83
2023-03-07T20:49:48.651Z,24.35
2023-03-07T20:52:23.005Z,20.63
2023-03-07T20:55:03.206Z,23.60
2023-03-07T20:57:31.900Z,22.65
2023-03-07T21:00:10.725Z,25.33
2023-03-07T21:03:05.987Z,36.20
2023-03-07T21:05:29.960Z,31.83
2023-03-07T21:08:18.397Z,25.52
2023-03-07T21:10:57.278Z,23.30
2023-03-07T21:13:35.748Z,26.75
2023-03-07T21:16:07.320Z,24.65
2023-03-07T21:18:43.708Z,23.85
2023-03-07T21:21:28.746Z,26.20
2023-03-07T21:24:04.200Z,22.55
2023-03-07T21:26:36.628Z,21.65
2023-03-07T21:29:19.023Z,23.25
2023-03-07T21:32:12.071Z,22.38
2023-03-07T21:35:03.706Z,24.02
2023-03-07T21:37:56.330Z,27.05
2023-03-07T21:40:41.237Z,25.63
2023-03-07T21:43:15.732Z,23.67
2023-03-07T21:52:26.365Z,21.38
2023-03-07T21:55:30.207Z,31.70
2023-03-07T21:58:19.228Z,43.28
2023-03-07T22:05:00.583Z,21.17
2023-03-07T22:09:16.531Z,25.40
2023-03-07T22:16:42.480Z,22.75
2023-03-07T22:19:29.325Z,22.42
2023-03-07T22:22:21.523Z,25.02
2023-03-07T22:25:05.100Z,22.67
2023-03-07T22:27:56.755Z,20.10
2023-03-07T22:30:39.731Z,30.48
2023-03-07T22:33:22.938Z,21.70
2023-03-07T22:36:00.539Z,21.20
2023-03-07T22:38:36.140Z,19.45
2023-03-07T22:41:22.267Z,18.42
2023-03-07T22:43:52.878Z,24.58
2023-03-07T22:46:51.244Z,21.15
2023-03-07T22:49:37.808Z,18.90
2023-03-07T22:52:12.090Z,20.92
2023-03-07T23:01:33.184Z,17.02
2023-03-07T23:04:44.745Z,16.05
2023-03-07T23:07:30.077Z,12.95
2023-03-07T23:10:47.556Z,15.60
2023-03-07T23:13:58.061Z,15.25
2023-03-07T23:26:37.237Z,16.08
2023-03-07T23:29:18.908Z,16.02
2023-03-07T23:35:33.992Z,24.15
2023-03-07T23:48:37.202Z,18.90
2023-03-07T23:54:47.671Z,17.75
